createdAt,value
2018-08-18T00:01:30.502Z,91.52
2018-08-18T00:04:05.202Z,91.87
2018-08-18T00:06:34.431Z,93.04
2018-08-18T00:09:03.724Z,93.97
2018-08-18T00:11:32.960Z,91.91
2018-08-18T00:14:02.204Z,93.39
2018-08-18T00:16:31.456Z,93.71
2018-08-18T00:19:01.577Z,93.90
2018-08-18T00:21:33.221Z,94.42
2018-08-18T00:24:08.825Z,94.19
2018-08-18T00:26:38.067Z,93.99
2018-08-18T00:29:09.099Z,91.07
2018-08-18T00:31:42.132Z,93.28
2018-08-18T00:34:11.378Z,94.00
2018-08-18T00:36:40.575Z,93.70
2018-08-18T00:39:12.274Z,90.85
2018-08-18T00:41:41.615Z,90.65
2018-08-18T00:44:11.799Z,92.25
2018-08-18T00:46:41.054Z,93.55
2018-08-18T00:49:10.273Z,94.39
2018-08-18T00:51:41.922Z,94.97
2018-08-18T00:54:11.168Z,95.21
2018-08-18T00:56:41.910Z,93.29
2018-08-18T00:59:11.159Z,91.98
2018-08-18T01:01:40.413Z,92.77
2018-08-18T01:04:10.260Z,91.09
2018-08-18T01:06:40.715Z,90.93
2018-08-18T01:09:11.751Z,93.02
2018-08-18T01:11:41.098Z,93.35
2018-08-18T01:14:16.608Z,94.17
2018-08-18T01:16:53.314Z,93.78
2018-08-18T01:19:23.553Z,94.03
2018-08-18T01:21:58.586Z,94.56
2018-08-18T01:24:28.432Z,93.69
2018-08-18T01:26:59.875Z,92.94
2018-08-18T01:29:29.127Z,94.22
2018-08-18T01:31:58.407Z,93.04
2018-08-18T01:34:27.644Z,94.92
2018-08-18T01:36:59.962Z,95.41
2018-08-18T01:39:29.255Z,94.79
2018-08-18T01:41:58.497Z,95.21
2018-08-18T01:44:27.736Z,95.19
2018-08-18T01:46:56.957Z,94.98
2018-08-18T01:49:32.527Z,94.92
2018-08-18T01:52:04.300Z,93.97
2018-08-18T01:54:33.938Z,92.56
2018-08-18T01:57:10.029Z,92.68
2018-08-18T01:59:41.486Z,93.40
2018-08-18T02:02:13.454Z,93.23
2018-08-18T02:04:43.133Z,92.74
2018-08-18T02:07:20.651Z,92.40
2018-08-18T02:09:49.907Z,93.52
2018-08-18T02:12:19.144Z,95.18
2018-08-18T02:14:48.408Z,95.58
2018-08-18T02:17:22.899Z,95.84
2018-08-18T02:19:52.537Z,96.09
2018-08-18T02:22:22.251Z,96.05
2018-08-18T02:24:51.478Z,96.23
2018-08-18T02:27:20.743Z,96.61
2018-08-18T02:30:07.371Z,94.56
2018-08-18T02:32:38.384Z,94.09
2018-08-18T02:35:08.442Z,93.42
2018-08-18T02:37:38.927Z,94.30
2018-08-18T02:40:10.938Z,92.35
2018-08-18T02:42:40.144Z,94.16
2018-08-18T02:45:10.532Z,94.44
2018-08-18T02:47:39.895Z,94.06
2018-08-18T02:50:10.680Z,93.97
2018-08-18T02:52:39.913Z,93.93
2018-08-18T02:55:11.122Z,95.15
2018-08-18T02:57:44.290Z,94.78
2018-08-18T03:00:24.281Z,93.60
2018-08-18T03:02:53.504Z,93.15
2018-08-18T03:05:22.775Z,94.20
2018-08-18T03:07:52.899Z,94.92
2018-08-18T03:10:22.788Z,92.93
2018-08-18T03:12:55.363Z,91.05
2018-08-18T03:16:09.547Z,92.48
2018-08-18T03:18:48.358Z,94.70
2018-08-18T03:21:17.821Z,95.99
2018-08-18T03:24:13.052Z,96.74
2018-08-18T03:26:44.058Z,97.02
2018-08-18T03:29:14.161Z,96.57
2018-08-18T03:31:43.735Z,96.92
2018-08-18T03:34:13.382Z,97.09
2018-08-18T03:36:44.787Z,97.25
2018-08-18T03:39:29.655Z,95.28
2018-08-18T03:42:00.060Z,95.53
2018-08-18T03:44:29.295Z,95.24
2018-08-18T03:46:58.535Z,96.18
2018-08-18T03:49:27.768Z,96.87
2018-08-18T03:51:57.017Z,97.66
2018-08-18T03:54:26.255Z,97.16
2018-08-18T03:56:55.564Z,94.78
2018-08-18T03:59:24.780Z,94.43
2018-08-18T04:02:00.942Z,96.37
2018-08-18T04:04:36.087Z,96.64
2018-08-18T04:07:06.999Z,95.32
2018-08-18T04:09:37.406Z,96.03
2018-08-18T04:12:09.024Z,95.85
2018-08-18T04:14:42.287Z,95.99
2018-08-18T04:17:29.154Z,95.28
2018-08-18T04:19:58.364Z,94.93
2018-08-18T04:22:27.604Z,96.12
2018-08-18T04:24:56.871Z,95.31
2018-08-18T04:27:45.080Z,95.78
2018-08-18T04:30:18.981Z,95.06
2018-08-18T04:32:58.919Z,95.84
2018-08-18T04:35:29.116Z,94.93
2018-08-18T04:37:59.253Z,94.27
2018-08-18T04:40:28.472Z,94.26
2018-08-18T04:42:59.140Z,93.16
2018-08-18T04:45:28.377Z,92.86
2018-08-18T04:47:57.627Z,91.86
2018-08-18T04:50:26.879Z,91.11
2018-08-18T04:52:56.151Z,86.42
2018-08-18T04:55:25.387Z,87.21
2018-08-18T04:57:54.621Z,85.59
2018-08-18T05:00:25.267Z,85.85
2018-08-18T05:02:58.724Z,87.00
2018-08-18T05:05:29.314Z,88.07
2018-08-18T05:07:59.567Z,86.20
2018-08-18T05:10:29.253Z,84.50
2018-08-18T05:12:58.495Z,82.63
2018-08-18T05:15:27.711Z,78.79
2018-08-18T05:17:56.936Z,77.28
2018-08-18T05:20:27.251Z,75.26
2018-08-18T05:23:05.083Z,74.18
2018-08-18T05:25:38.400Z,74.27
2018-08-18T05:28:07.653Z,69.30
2018-08-18T05:30:36.886Z,63.41
2018-08-18T05:33:06.123Z,63.54
2018-08-18T05:35:35.594Z,60.87
2018-08-18T05:38:06.103Z,56.80
2018-08-18T05:40:35.556Z,54.12
2018-08-18T05:43:04.794Z,57.51
2018-08-18T05:45:34.878Z,62.03
2018-08-18T05:48:04.152Z,64.95
2018-08-18T05:50:34.623Z,67.02
2018-08-18T05:53:21.431Z,68.77
2018-08-18T05:55:50.923Z,69.94
2018-08-18T05:58:21.406Z,70.59
2018-08-18T06:00:54.328Z,69.75
2018-08-18T06:03:23.571Z,68.80
2018-08-18T06:05:52.808Z,65.81
2018-08-18T06:08:22.036Z,62.52
2018-08-18T06:10:51.307Z,55.48
2018-08-18T06:13:21.066Z,50.88
2018-08-18T06:16:09.046Z,42.40
2018-08-18T06:18:39.297Z,37.56
2018-08-18T06:21:09.832Z,40.25
2018-08-18T06:23:39.546Z,42.92
2018-08-18T06:26:09.202Z,41.11
2018-08-18T06:28:38.463Z,41.48
2018-08-18T06:31:07.721Z,40.47
2018-08-18T06:33:38.180Z,41.52
2018-08-18T06:36:07.448Z,39.85
2018-08-18T06:38:36.682Z,39.67
2018-08-18T06:41:06.107Z,39.40
2018-08-18T06:43:35.590Z,34.38
2018-08-18T06:46:04.859Z,36.32
2018-08-18T06:48:35.734Z,37.69
2018-08-18T06:51:05.416Z,39.26
2018-08-18T06:53:39.850Z,36.12
2018-08-18T06:56:09.274Z,32.21
2018-08-18T06:58:38.578Z,43.42
2018-08-18T07:01:08.395Z,48.14
2018-08-18T07:03:44.754Z,51.92
2018-08-18T07:06:15.377Z,52.41
2018-08-18T07:08:58.975Z,54.57
2018-08-18T07:11:28.626Z,53.52
2018-08-18T07:13:57.854Z,44.33
2018-08-18T07:16:27.107Z,41.36
2018-08-18T07:18:56.323Z,37.77
2018-08-18T07:21:25.571Z,38.51
2018-08-18T07:23:54.826Z,37.68
2018-08-18T07:26:24.067Z,33.25
2018-08-18T07:28:53.389Z,36.55
2018-08-18T07:31:22.548Z,38.45
2018-08-18T07:33:51.787Z,36.90
2018-08-18T07:36:21.038Z,40.24
2018-08-18T07:38:50.271Z,43.84
2018-08-18T07:41:19.818Z,45.49
2018-08-18T07:43:49.051Z,48.91
2018-08-18T07:46:18.344Z,49.06
2018-08-18T07:48:47.543Z,45.95
2018-08-18T07:51:16.787Z,45.90
2018-08-18T07:53:46.041Z,45.21
2018-08-18T07:56:15.281Z,47.11
2018-08-18T07:58:44.503Z,49.22
2018-08-18T08:01:13.756Z,50.90
2018-08-18T08:03:42.984Z,51.82
2018-08-18T08:06:12.210Z,51.45
2018-08-18T08:08:46.534Z,50.60
2018-08-18T08:11:15.773Z,52.24
2018-08-18T08:13:44.989Z,49.90
2018-08-18T08:16:14.243Z,48.48
2018-08-18T08:18:43.480Z,48.32
2018-08-18T08:21:12.715Z,45.32
2018-08-18T08:23:41.949Z,45.17
2018-08-18T08:26:11.541Z,46.80
2018-08-18T08:28:40.771Z,46.28
2018-08-18T08:31:10.027Z,47.70
2018-08-18T08:33:39.764Z,48.63
2018-08-18T08:36:14.535Z,51.37
2018-08-18T08:39:00.142Z,51.36
2018-08-18T08:41:31.332Z,48.55
2018-08-18T08:44:00.771Z,48.48
2018-08-18T08:46:29.991Z,48.57
2018-08-18T08:49:00.845Z,48.41
2018-08-18T08:51:30.066Z,46.61
2018-08-18T08:54:00.234Z,44.77
2018-08-18T08:56:34.638Z,42.29
2018-08-18T08:59:04.147Z,42.51
2018-08-18T09:01:33.401Z,40.65
2018-08-18T09:04:03.074Z,41.17
2018-08-18T09:06:32.351Z,37.49
2018-08-18T09:09:01.584Z,32.62
2018-08-18T09:11:30.847Z,35.09
2018-08-18T09:14:04.641Z,34.41
2018-08-18T09:16:34.279Z,36.75
2018-08-18T09:19:03.504Z,41.08
2018-08-18T09:21:43.826Z,46.15
2018-08-18T09:24:13.283Z,45.23
2018-08-18T09:26:47.665Z,40.29
2018-08-18T09:29:16.906Z,39.12
2018-08-18T09:31:46.506Z,31.84
2018-08-18T09:34:15.910Z,37.28
2018-08-18T09:36:45.985Z,34.97
2018-08-18T09:39:22.583Z,31.34
2018-08-18T09:41:51.810Z,34.60
2018-08-18T09:44:26.974Z,37.73
2018-08-18T09:46:56.784Z,41.19
2018-08-18T09:49:26.189Z,40.91
2018-08-18T09:51:55.430Z,40.52
2018-08-18T09:54:25.759Z,38.72
2018-08-18T09:56:55.173Z,39.21
2018-08-18T09:59:24.605Z,40.83
2018-08-18T10:01:54.086Z,41.35
2018-08-18T10:04:23.352Z,39.37
2018-08-18T10:06:53.519Z,41.16
2018-08-18T10:09:22.878Z,40.12
2018-08-18T10:11:52.115Z,37.01
2018-08-18T10:14:21.346Z,36.07
2018-08-18T10:16:50.787Z,34.89
2018-08-18T10:19:20.036Z,35.00
2018-08-18T10:21:49.275Z,32.06
2018-08-18T10:24:18.529Z,36.90
2018-08-18T10:26:53.501Z,33.03
2018-08-18T10:29:24.032Z,37.78
2018-08-18T10:31:55.296Z,39.08
2018-08-18T10:34:25.700Z,41.91
2018-08-18T10:36:58.053Z,35.58
2018-08-18T10:39:27.330Z,35.66
2018-08-18T10:42:16.815Z,35.37
2018-08-18T10:44:52.055Z,35.04
2018-08-18T10:47:22.755Z,34.61
2018-08-18T10:50:09.021Z,33.32
2018-08-18T10:52:55.056Z,31.54
2018-08-18T10:55:24.323Z,33.72
2018-08-18T10:58:01.095Z,34.48
2018-08-18T11:00:31.464Z,33.27
2018-08-18T11:03:02.028Z,37.98
2018-08-18T11:05:31.639Z,29.96
2018-08-18T11:08:06.132Z,35.87
2018-08-18T11:10:37.232Z,36.81
2018-08-18T11:13:06.517Z,37.69
2018-08-18T11:15:35.763Z,41.78
2018-08-18T11:18:05.024Z,34.41
2018-08-18T11:20:35.120Z,36.57
2018-08-18T11:23:16.639Z,36.14
2018-08-18T11:25:53.171Z,37.59
2018-08-18T11:28:23.133Z,36.07
2018-08-18T11:30:52.931Z,36.83
2018-08-18T11:33:40.422Z,35.48
2018-08-18T11:36:10.528Z,35.62
2018-08-18T11:38:40.669Z,32.65
2018-08-18T11:41:09.930Z,34.59
2018-08-18T11:43:47.150Z,36.97
2018-08-18T11:46:16.438Z,35.34
2018-08-18T11:48:45.688Z,33.72
2018-08-18T11:51:14.923Z,37.20
2018-08-18T11:53:59.982Z,37.82
2018-08-18T11:56:29.334Z,33.98
2018-08-18T11:59:09.048Z,34.37
2018-08-18T12:01:39.677Z,37.66
2018-08-18T12:04:08.934Z,36.72
2018-08-18T12:06:47.339Z,37.04
2018-08-18T12:09:16.585Z,39.16
2018-08-18T12:11:47.571Z,38.81
2018-08-18T12:14:16.909Z,35.48
2018-08-18T12:16:46.152Z,32.35
2018-08-18T12:19:15.369Z,32.18
2018-08-18T12:21:45.619Z,33.00
2018-08-18T12:24:20.027Z,37.41
2018-08-18T12:27:08.840Z,33.87
2018-08-18T12:29:38.158Z,35.66
2018-08-18T12:32:12.463Z,35.03
2018-08-18T12:34:41.702Z,37.23
2018-08-18T12:37:10.924Z,36.19
2018-08-18T12:39:40.163Z,27.51
2018-08-18T12:42:10.631Z,36.73
2018-08-18T12:44:40.851Z,34.41
2018-08-18T12:47:10.071Z,32.69
2018-08-18T12:49:40.502Z,35.11
2018-08-18T12:52:09.698Z,38.93
2018-08-18T12:54:38.947Z,37.49
2018-08-18T12:57:08.917Z,36.72
2018-08-18T12:59:38.117Z,35.55
2018-08-18T13:02:07.362Z,37.03
2018-08-18T13:04:36.620Z,38.16
2018-08-18T13:07:05.923Z,41.10
2018-08-18T13:09:35.150Z,40.76
2018-08-18T13:12:04.395Z,40.66
2018-08-18T13:14:33.651Z,40.35
2018-08-18T13:17:02.872Z,37.98
2018-08-18T13:19:34.370Z,41.38
2018-08-18T13:22:04.089Z,40.51
2018-08-18T13:24:33.407Z,39.51
2018-08-18T13:27:03.224Z,42.04
2018-08-18T13:29:33.216Z,40.99
2018-08-18T13:32:02.455Z,41.14
2018-08-18T13:34:32.060Z,42.73
2018-08-18T13:37:01.295Z,40.64
2018-08-18T13:39:30.550Z,40.48
2018-08-18T13:42:10.271Z,42.61
2018-08-18T13:44:39.485Z,41.24
2018-08-18T13:47:08.758Z,44.41
2018-08-18T13:49:38.001Z,40.69
2018-08-18T13:52:07.252Z,41.82
2018-08-18T13:54:40.588Z,40.36
2018-08-18T13:57:10.170Z,43.03
2018-08-18T13:59:40.927Z,41.70
2018-08-18T14:02:10.755Z,42.83
2018-08-18T14:04:41.763Z,41.19
2018-08-18T14:07:11.115Z,42.66
2018-08-18T14:09:45.480Z,40.97
2018-08-18T14:12:15.784Z,41.85
2018-08-18T14:14:45.628Z,40.99
2018-08-18T14:17:15.659Z,43.29
2018-08-18T14:19:44.992Z,40.70
2018-08-18T14:22:15.954Z,43.01
2018-08-18T14:24:45.192Z,45.29
2018-08-18T14:27:18.012Z,40.10
2018-08-18T14:29:47.267Z,39.35
2018-08-18T14:32:28.786Z,39.99
2018-08-18T14:35:07.268Z,37.54
2018-08-18T14:37:39.918Z,41.83
2018-08-18T14:40:12.099Z,40.65
2018-08-18T14:42:41.332Z,41.03
2018-08-18T14:45:14.456Z,38.66
2018-08-18T14:47:43.776Z,41.09
2018-08-18T14:50:23.095Z,40.92
2018-08-18T14:52:53.041Z,42.17
2018-08-18T14:55:22.282Z,43.53
2018-08-18T14:58:06.407Z,40.71
2018-08-18T15:00:35.638Z,42.22
2018-08-18T15:03:04.854Z,39.92
2018-08-18T15:05:34.090Z,43.08
2018-08-18T15:08:04.290Z,43.37
2018-08-18T15:10:40.861Z,42.34
2018-08-18T15:13:10.701Z,41.79
2018-08-18T15:15:39.955Z,42.10
2018-08-18T15:18:11.539Z,42.37
2018-08-18T15:20:41.278Z,43.63
2018-08-18T15:23:11.206Z,43.23
2018-08-18T15:25:41.211Z,42.32
2018-08-18T15:28:12.587Z,43.67
2018-08-18T15:30:45.143Z,44.16
2018-08-18T15:33:19.007Z,42.83
2018-08-18T15:35:48.270Z,42.48
2018-08-18T15:38:17.559Z,42.83
2018-08-18T15:40:46.830Z,43.73
2018-08-18T15:43:16.071Z,44.36
2018-08-18T15:46:04.862Z,42.25
2018-08-18T15:48:34.591Z,44.79
2018-08-18T15:51:03.841Z,43.67
2018-08-18T15:53:50.543Z,43.05
2018-08-18T15:56:20.627Z,41.64
2018-08-18T15:58:50.500Z,42.82
2018-08-18T16:01:24.732Z,42.08
2018-08-18T16:03:54.503Z,43.99
2018-08-18T16:06:23.897Z,41.17
2018-08-18T16:08:53.546Z,42.61
2018-08-18T16:11:22.807Z,42.13
2018-08-18T16:13:52.148Z,40.44
2018-08-18T16:16:21.272Z,43.52
2018-08-18T16:18:55.219Z,44.49
2018-08-18T16:21:25.046Z,43.77
2018-08-18T16:23:54.310Z,43.70
2018-08-18T16:26:23.510Z,44.44
2018-08-18T16:28:53.467Z,45.29
2018-08-18T16:31:22.722Z,44.44
2018-08-18T16:33:53.011Z,43.64
2018-08-18T16:36:22.511Z,42.82
2018-08-18T16:38:51.736Z,43.26
2018-08-18T16:41:20.983Z,41.71
2018-08-18T16:43:51.446Z,41.59
2018-08-18T16:46:27.682Z,43.04
2018-08-18T16:48:56.910Z,42.23
2018-08-18T16:51:26.296Z,42.14
2018-08-18T16:53:55.519Z,42.91
2018-08-18T16:56:27.528Z,44.64
2018-08-18T16:58:59.969Z,43.75
2018-08-18T17:01:30.452Z,44.55
2018-08-18T17:03:59.687Z,44.37
2018-08-18T17:06:28.917Z,44.83
2018-08-18T17:08:58.167Z,45.46
2018-08-18T17:11:27.417Z,43.52
2018-08-18T17:13:59.147Z,43.36
2018-08-18T17:16:28.404Z,45.48
2018-08-18T17:18:57.597Z,46.72
2018-08-18T17:21:26.842Z,46.06
2018-08-18T17:23:56.079Z,45.73
2018-08-18T17:26:26.185Z,45.17
2018-08-18T17:28:55.411Z,45.41
2018-08-18T17:31:24.656Z,45.61
2018-08-18T17:33:53.874Z,45.66
2018-08-18T17:36:23.107Z,45.78
2018-08-18T17:38:52.330Z,46.62
2018-08-18T17:41:21.582Z,46.55
2018-08-18T17:43:50.823Z,47.71
2018-08-18T17:46:20.039Z,47.26
2018-08-18T17:48:54.131Z,50.06
2018-08-18T17:51:23.369Z,48.66
2018-08-18T17:53:54.654Z,49.12
2018-08-18T17:56:23.890Z,49.51
2018-08-18T17:58:53.160Z,52.64
2018-08-18T18:01:22.405Z,53.78
2018-08-18T18:03:51.618Z,56.12
2018-08-18T18:06:22.427Z,57.58
2018-08-18T18:08:51.825Z,58.54
2018-08-18T18:11:21.058Z,59.63
2018-08-18T18:13:50.313Z,60.03
2018-08-18T18:16:26.925Z,62.88
2018-08-18T18:18:58.458Z,58.89
2018-08-18T18:21:27.647Z,60.09
2018-08-18T18:23:56.892Z,62.43
2018-08-18T18:26:26.106Z,61.00
2018-08-18T18:28:55.346Z,61.83
2018-08-18T18:31:24.585Z,65.57
2018-08-18T18:33:58.803Z,65.61
2018-08-18T18:36:28.026Z,66.74
2018-08-18T18:38:57.839Z,67.88
2018-08-18T18:41:27.411Z,69.15
2018-08-18T18:44:03.527Z,71.25
2018-08-18T18:46:32.777Z,72.33
2018-08-18T18:49:02.020Z,72.61
2018-08-18T18:51:31.294Z,72.78
2018-08-18T18:54:00.521Z,73.33
2018-08-18T18:56:29.750Z,74.52
2018-08-18T18:58:58.987Z,75.24
2018-08-18T19:01:28.227Z,72.09
2018-08-18T19:03:57.469Z,71.30
2018-08-18T19:06:26.713Z,70.68
2018-08-18T19:09:00.351Z,70.61
2018-08-18T19:11:29.659Z,70.88
2018-08-18T19:13:59.278Z,74.18
2018-08-18T19:16:28.511Z,74.89
2018-08-18T19:18:57.802Z,76.56
2018-08-18T19:21:32.927Z,78.46
2018-08-18T19:24:09.653Z,78.02
2018-08-18T19:26:48.198Z,78.22
2018-08-18T19:29:17.943Z,79.83
2018-08-18T19:31:50.810Z,79.84
2018-08-18T19:34:20.107Z,80.67
2018-08-18T19:37:03.831Z,81.08
2018-08-18T19:39:34.235Z,80.34
2018-08-18T19:42:08.999Z,78.84
2018-08-18T19:44:41.596Z,80.50
2018-08-18T19:47:10.836Z,81.18
2018-08-18T19:49:43.536Z,81.15
2018-08-18T19:52:14.735Z,81.98
2018-08-18T19:54:45.295Z,82.41
2018-08-18T19:57:23.047Z,82.47
2018-08-18T19:59:52.855Z,82.82
2018-08-18T20:02:22.141Z,82.61
2018-08-18T20:04:51.768Z,82.35
2018-08-18T20:07:20.972Z,80.92
2018-08-18T20:09:50.198Z,80.52
2018-08-18T20:12:19.487Z,80.16
2018-08-18T20:14:48.722Z,82.52
2018-08-18T20:17:18.022Z,83.22
2018-08-18T20:19:47.246Z,80.85
2018-08-18T20:22:16.814Z,83.32
2018-08-18T20:24:46.119Z,84.80
2018-08-18T20:27:15.287Z,82.69
2018-08-18T20:29:44.556Z,84.84
2018-08-18T20:32:13.778Z,83.21
2018-08-18T20:34:43.116Z,85.40
2018-08-18T20:37:12.262Z,85.95
2018-08-18T20:39:41.486Z,86.94
2018-08-18T20:42:10.739Z,86.46
2018-08-18T20:44:39.965Z,86.32
2018-08-18T20:47:09.195Z,86.65
2018-08-18T20:49:38.454Z,87.12
2018-08-18T20:52:07.699Z,87.41
2018-08-18T20:54:36.938Z,87.47
2018-08-18T20:57:06.283Z,87.03
2018-08-18T20:59:35.558Z,88.37
2018-08-18T21:02:04.815Z,88.42
2018-08-18T21:04:34.058Z,88.60
2018-08-18T21:07:03.282Z,88.19
2018-08-18T21:09:33.479Z,88.68
2018-08-18T21:12:02.722Z,88.66
2018-08-18T21:14:31.943Z,88.15
2018-08-18T21:17:01.199Z,86.28
2018-08-18T21:19:30.455Z,88.47
2018-08-18T21:21:59.707Z,89.88
2018-08-18T21:24:28.978Z,90.35
2018-08-18T21:26:58.225Z,90.89
2018-08-18T21:29:27.443Z,90.07
2018-08-18T21:31:56.668Z,90.02
2018-08-18T21:34:25.923Z,90.58
2018-08-18T21:36:55.175Z,90.16
2018-08-18T21:39:24.393Z,90.51
2018-08-18T21:41:53.655Z,90.58
2018-08-18T21:44:23.729Z,91.21
2018-08-18T21:46:52.969Z,89.99
2018-08-18T21:49:22.212Z,91.09
2018-08-18T21:51:51.484Z,91.65
2018-08-18T21:54:20.694Z,90.98
2018-08-18T21:56:49.933Z,91.75
2018-08-18T21:59:19.195Z,92.01
2018-08-18T22:01:48.428Z,90.75
2018-08-18T22:04:17.669Z,90.36
2018-08-18T22:06:46.911Z,89.47
2018-08-18T22:09:23.078Z,90.84
2018-08-18T22:11:52.445Z,91.71
2018-08-18T22:14:21.670Z,92.24
2018-08-18T22:16:56.855Z,92.79
2018-08-18T22:19:27.268Z,92.32
2018-08-18T22:21:56.550Z,92.30
2018-08-18T22:24:25.912Z,92.38
2018-08-18T22:26:55.184Z,92.81
2018-08-18T22:29:25.783Z,92.43
2018-08-18T22:31:55.060Z,92.88
2018-08-18T22:34:24.295Z,93.38
2018-08-18T22:37:01.668Z,91.98
2018-08-18T22:39:30.938Z,92.53
2018-08-18T22:42:00.184Z,92.79
2018-08-18T22:44:29.836Z,92.45
2018-08-18T22:46:59.074Z,90.47
2018-08-18T22:49:28.315Z,92.34
2018-08-18T22:51:57.579Z,93.40
2018-08-18T22:54:26.820Z,93.43
2018-08-18T22:57:00.986Z,93.10
2018-08-18T22:59:30.726Z,93.73
2018-08-18T23:01:59.972Z,93.81
2018-08-18T23:04:34.548Z,93.89
2018-08-18T23:07:05.012Z,93.97
2018-08-18T23:09:34.271Z,93.79
2018-08-18T23:12:05.476Z,93.40
2018-08-18T23:14:36.941Z,93.62
2018-08-18T23:17:07.965Z,94.44
2018-08-18T23:19:37.243Z,95.35
2018-08-18T23:22:06.523Z,95.46
2018-08-18T23:24:39.183Z,95.25
2018-08-18T23:27:08.422Z,94.89
2018-08-18T23:34:45.082Z,95.62
2018-08-18T23:37:18.378Z,95.91
2018-08-18T23:39:50.599Z,95.19
2018-08-18T23:42:22.045Z,95.47
2018-08-18T23:44:51.278Z,94.86
2018-08-18T23:47:20.718Z,94.84
2018-08-18T23:49:49.974Z,95.62
2018-08-18T23:52:19.227Z,94.12
2018-08-18T23:54:48.482Z,94.87
2018-08-18T23:57:18.613Z,93.86
2018-08-18T23:59:48.138Z,94.31
